createdAt,value
2022-09-03T00:02:40.002Z,101445.91
2022-09-03T00:05:23.306Z,101454.00
2022-09-03T00:08:20.883Z,101445.22
2022-09-03T00:10:53.499Z,101446.06
2022-09-03T00:13:24.846Z,101439.00
2022-09-03T00:15:54.739Z,101445.38
2022-09-03T00:18:26.332Z,101435.47
2022-09-03T00:20:59.385Z,101441.84
2022-09-03T00:23:31.195Z,101438.31
2022-09-03T00:26:18.249Z,101446.41
2022-09-03T00:28:58.769Z,101440.19
2022-09-03T00:31:39.715Z,101442.88
2022-09-03T00:34:12.574Z,101431.22
2022-09-03T00:36:42.676Z,101433.06
2022-09-03T00:39:15.063Z,101443.03
2022-09-03T00:42:07.895Z,101437.78
2022-09-03T00:44:56.860Z,101438.81
2022-09-03T00:47:41.577Z,101434.25
2022-09-03T00:50:32.295Z,101431.72
2022-09-03T00:53:20.105Z,101427.34
2022-09-03T00:56:03.023Z,101415.53
2022-09-03T00:58:59.835Z,101422.25
2022-09-03T01:01:35.545Z,101422.25
2022-09-03T01:04:29.778Z,101382.44
2022-09-03T01:07:19.546Z,101421.44
2022-09-03T01:09:51.995Z,101422.44
2022-09-03T01:12:26.623Z,101418.06
2022-09-03T01:15:09.055Z,101417.22
2022-09-03T01:17:41.141Z,101416.38
2022-09-03T01:20:28.669Z,101419.06
2022-09-03T01:23:07.007Z,101412.84
2022-09-03T01:25:54.679Z,101416.53
2022-09-03T01:28:37.075Z,101416.53
2022-09-03T01:31:11.419Z,101418.41
2022-09-03T01:33:44.305Z,101418.41
2022-09-03T01:36:43.092Z,101418.53
2022-09-03T01:39:17.597Z,101420.41
2022-09-03T01:42:16.432Z,101402.88
2022-09-03T01:45:08.299Z,101414.19
2022-09-03T01:48:07.877Z,101418.69
2022-09-03T01:51:09.129Z,101418.88
2022-09-03T01:54:04.309Z,101418.88
2022-09-03T01:56:39.933Z,101419.88
2022-09-03T01:59:07.727Z,101419.88
2022-09-03T02:01:41.595Z,101417.38
2022-09-03T02:04:23.215Z,101416.50
2022-09-03T02:06:51.553Z,101416.50
2022-09-03T02:09:19.558Z,101417.38
2022-09-03T02:11:57.736Z,101376.13
2022-09-03T02:14:25.717Z,101418.34
2022-09-03T02:16:52.780Z,101412.13
2022-09-03T02:19:19.271Z,101396.75
2022-09-03T02:21:57.034Z,101405.03
2022-09-03T02:24:26.039Z,101396.91
2022-09-03T02:26:53.933Z,101398.81
2022-09-03T02:29:21.375Z,101403.38
2022-09-03T02:31:48.142Z,101399.84
2022-09-03T02:34:14.727Z,101397.13
2022-09-03T02:36:45.870Z,101399.97
2022-09-03T02:39:13.819Z,101401.84
2022-09-03T02:41:40.356Z,101367.34
2022-09-03T02:44:26.209Z,101398.47
2022-09-03T02:47:04.060Z,101398.31
2022-09-03T02:49:31.367Z,101402.00
2022-09-03T02:52:00.985Z,101382.22
2022-09-03T02:54:28.949Z,101396.75
2022-09-03T02:56:55.411Z,101395.78
2022-09-03T02:59:22.752Z,101403.03
2022-09-03T03:01:49.915Z,101377.50
2022-09-03T03:04:16.507Z,101390.16
2022-09-03T03:06:42.969Z,101402.31
2022-09-03T03:09:14.231Z,101394.22
2022-09-03T03:11:40.811Z,101407.84
2022-09-03T03:14:07.270Z,101397.88
2022-09-03T03:16:33.831Z,101407.00
2022-09-03T03:19:00.475Z,101406.16
2022-09-03T03:21:27.054Z,101398.09
2022-09-03T03:23:53.846Z,101388.44
2022-09-03T03:26:23.103Z,101406.31
2022-09-03T03:28:56.782Z,101400.25
2022-09-03T03:31:23.686Z,101401.09
2022-09-03T03:33:54.507Z,101397.56
2022-09-03T03:36:22.251Z,101397.56
2022-09-03T03:38:48.900Z,101395.84
2022-09-03T03:41:19.326Z,101394.19
2022-09-03T03:43:46.032Z,101394.19
2022-09-03T03:46:12.751Z,101394.19
2022-09-03T03:48:39.809Z,101391.66
2022-09-03T03:51:09.559Z,101396.19
2022-09-03T03:53:37.983Z,101359.91
2022-09-03T03:56:07.735Z,101399.91
2022-09-03T03:58:34.532Z,101402.59
2022-09-03T04:01:09.045Z,101393.31
2022-09-03T04:03:41.588Z,101382.34
2022-09-03T04:06:13.481Z,101400.91
2022-09-03T04:08:42.280Z,101398.84
2022-09-03T04:11:10.867Z,101412.69
2022-09-03T04:13:42.219Z,101404.75
2022-09-03T04:16:18.504Z,101394.78
2022-09-03T04:18:45.530Z,101403.94
2022-09-03T04:21:15.070Z,101408.44
2022-09-03T04:23:43.552Z,101375.22
2022-09-03T04:26:12.362Z,101403.06
2022-09-03T04:28:39.023Z,101402.22
2022-09-03T04:31:08.173Z,101411.31
2022-09-03T04:33:38.045Z,101406.94
2022-09-03T04:36:06.466Z,101404.22
2022-09-03T04:38:34.583Z,101407.94
2022-09-03T04:41:01.511Z,101400.50
2022-09-03T04:43:29.031Z,101407.94
2022-09-03T04:46:04.580Z,101408.94
2022-09-03T04:48:32.950Z,101402.88
2022-09-03T04:51:06.123Z,101407.25
2022-09-03T04:53:34.804Z,101390.22
2022-09-03T04:56:01.467Z,101386.69
2022-09-03T04:58:27.953Z,101402.03
2022-09-03T05:00:54.740Z,101400.34
2022-09-03T05:03:22.120Z,101403.19
2022-09-03T05:06:00.855Z,101400.34
2022-09-03T05:08:27.321Z,101404.03
2022-09-03T05:11:00.499Z,101397.81
2022-09-03T05:13:28.566Z,101402.38
2022-09-03T05:16:02.405Z,101401.53
2022-09-03T05:18:29.609Z,101399.81
2022-09-03T05:21:05.143Z,101402.50
2022-09-03T05:23:37.438Z,101406.22
2022-09-03T05:26:10.902Z,101414.31
2022-09-03T05:28:39.714Z,101419.69
2022-09-03T05:31:11.598Z,101418.00
2022-09-03T05:33:43.830Z,101418.00
2022-09-03T05:36:12.847Z,101418.00
2022-09-03T05:38:39.544Z,101411.78
2022-09-03T05:41:08.790Z,101416.31
2022-09-03T05:43:35.850Z,101415.78
2022-09-03T05:46:04.947Z,101412.94
2022-09-03T05:48:33.357Z,101414.47
2022-09-03T05:51:05.483Z,101415.78
2022-09-03T05:53:34.841Z,101413.63
2022-09-03T05:56:04.149Z,101410.94
2022-09-03T05:58:35.835Z,101413.63
2022-09-03T06:01:13.683Z,101410.06
2022-09-03T06:03:41.642Z,101419.00
2022-09-03T06:06:08.389Z,101415.94
2022-09-03T06:08:37.726Z,101412.94
2022-09-03T06:11:05.011Z,101425.38
2022-09-03T06:13:33.019Z,101415.25
2022-09-03T06:16:01.337Z,101415.44
2022-09-03T06:18:28.744Z,101421.69
2022-09-03T06:21:03.574Z,101415.44
2022-09-03T06:23:30.974Z,101416.31
2022-09-03T06:26:05.655Z,101415.28
2022-09-03T06:28:34.873Z,101416.31
2022-09-03T06:31:02.816Z,101418.00
2022-09-03T06:33:31.531Z,101416.13
2022-09-03T06:35:59.615Z,101417.00
2022-09-03T06:38:28.976Z,101414.59
2022-09-03T06:40:56.758Z,101418.00
2022-09-03T06:43:23.938Z,101401.09
2022-09-03T06:45:58.695Z,101413.94
2022-09-03T06:48:26.420Z,101417.84
2022-09-03T06:50:56.802Z,101423.22
2022-09-03T06:53:32.191Z,101421.38
2022-09-03T06:56:04.424Z,101401.78
2022-09-03T06:58:42.933Z,101424.06
2022-09-03T07:01:20.989Z,101419.69
2022-09-03T07:03:52.108Z,101425.09
2022-09-03T07:06:19.707Z,101419.69
2022-09-03T07:08:46.759Z,101425.09
2022-09-03T07:11:19.555Z,101430.47
2022-09-03T07:13:48.131Z,101418.81
2022-09-03T07:16:20.412Z,101423.38
2022-09-03T07:18:47.666Z,101424.22
2022-09-03T07:21:17.074Z,101426.91
2022-09-03T07:23:44.436Z,101415.16
2022-09-03T07:26:13.700Z,101418.69
2022-09-03T07:28:42.190Z,101413.28
2022-09-03T07:31:13.228Z,101422.22
2022-09-03T07:33:39.730Z,101407.38
2022-09-03T07:36:15.375Z,101418.34
2022-09-03T07:38:44.996Z,101411.81
2022-09-03T07:41:18.870Z,101413.34
2022-09-03T07:43:54.883Z,101411.47
2022-09-03T07:46:23.686Z,101418.38
2022-09-03T07:48:50.818Z,101414.84
2022-09-03T07:51:18.116Z,101412.69
2022-09-03T07:53:46.792Z,101420.59
2022-09-03T07:56:15.930Z,101416.91
2022-09-03T07:58:43.018Z,101422.97
2022-09-03T08:01:14.995Z,101415.75
2022-09-03T08:03:47.381Z,101406.28
2022-09-03T08:06:15.550Z,101415.09
2022-09-03T08:08:45.069Z,101416.78
2022-09-03T08:11:17.175Z,101422.03
2022-09-03T08:13:49.555Z,101428.09
2022-09-03T08:16:20.895Z,101425.25
2022-09-03T08:18:47.578Z,101426.09
2022-09-03T08:21:16.823Z,101422.38
2022-09-03T08:23:45.510Z,101420.56
2022-09-03T08:26:13.715Z,101426.59
2022-09-03T08:28:40.689Z,101410.44
2022-09-03T08:31:11.421Z,101418.34
2022-09-03T08:33:43.506Z,101362.13
2022-09-03T08:36:16.943Z,101428.97
2022-09-03T08:38:45.498Z,101430.66
2022-09-03T08:41:19.831Z,101423.25
2022-09-03T08:43:58.563Z,101429.47
2022-09-03T08:46:44.043Z,101431.19
2022-09-03T08:49:14.852Z,101426.63
2022-09-03T08:51:44.991Z,101428.34
2022-09-03T08:54:12.970Z,101431.72
2022-09-03T08:56:42.679Z,101429.84
2022-09-03T08:59:10.031Z,101415.34
2022-09-03T09:01:42.424Z,101428.69
2022-09-03T09:04:14.671Z,101431.22
2022-09-03T09:06:58.011Z,101414.53
2022-09-03T09:09:48.935Z,101424.66
2022-09-03T09:12:25.474Z,101411.81
2022-09-03T09:15:43.309Z,101422.63
2022-09-03T09:18:15.729Z,101424.31
2022-09-03T09:20:51.860Z,101423.31
2022-09-03T09:23:33.333Z,101425.00
2022-09-03T09:26:05.846Z,101427.69
2022-09-03T09:28:37.907Z,101427.69
2022-09-03T09:31:12.457Z,101406.09
2022-09-03T09:33:39.074Z,101421.97
2022-09-03T09:36:09.516Z,101419.97
2022-09-03T09:38:38.691Z,101419.97
2022-09-03T09:41:29.576Z,101423.34
2022-09-03T09:44:07.613Z,101429.38
2022-09-03T09:46:41.099Z,101427.56
2022-09-03T09:49:31.880Z,101417.59
2022-09-03T09:52:26.099Z,101419.97
2022-09-03T09:55:07.068Z,101422.50
2022-09-03T09:57:34.288Z,101420.63
2022-09-03T10:00:18.903Z,101423.34
2022-09-03T10:02:51.409Z,101422.34
2022-09-03T10:05:22.796Z,101364.63
2022-09-03T10:07:56.830Z,101417.44
2022-09-03T10:10:24.011Z,101412.72
2022-09-03T10:13:19.735Z,101405.13
2022-09-03T10:15:52.116Z,101411.75
2022-09-03T10:18:44.939Z,101412.56
2022-09-03T10:21:23.176Z,101417.97
2022-09-03T10:24:23.367Z,101417.13
2022-09-03T10:26:49.962Z,101422.69
2022-09-03T10:29:21.031Z,101403.09
2022-09-03T10:32:09.595Z,101414.59
2022-09-03T10:35:21.303Z,101414.59
2022-09-03T10:37:55.655Z,101417.28
2022-09-03T10:40:32.119Z,101417.97
2022-09-03T10:43:19.717Z,101414.44
2022-09-03T10:46:10.481Z,101417.97
2022-09-03T10:48:45.952Z,101415.94
2022-09-03T10:51:24.214Z,101402.44
2022-09-03T10:54:09.148Z,101418.31
2022-09-03T10:57:03.385Z,101408.22
2022-09-03T10:59:33.599Z,101411.59
2022-09-03T11:02:26.610Z,101405.03
2022-09-03T11:04:59.212Z,101407.56
2022-09-03T11:07:37.631Z,101379.88
2022-09-03T11:10:24.934Z,101402.16
2022-09-03T11:13:03.761Z,101398.28
2022-09-03T11:15:41.275Z,101399.16
2022-09-03T11:18:26.313Z,101400.16
2022-09-03T11:20:57.160Z,101390.53
2022-09-03T11:23:28.220Z,101395.44
2022-09-03T11:26:01.391Z,101405.19
2022-09-03T11:28:52.987Z,101403.16
2022-09-03T11:31:34.358Z,101400.31
2022-09-03T11:34:05.256Z,101405.56
2022-09-03T11:36:34.654Z,101397.47
2022-09-03T11:39:01.200Z,101402.66
2022-09-03T11:41:35.760Z,101381.28
2022-09-03T11:44:18.028Z,101395.75
2022-09-03T11:46:58.322Z,101386.66
2022-09-03T11:49:31.073Z,101388.34
2022-09-03T11:52:08.057Z,101354.78
2022-09-03T11:54:44.714Z,101389.03
2022-09-03T11:57:21.258Z,101377.72
2022-09-03T11:59:48.001Z,101395.09
2022-09-03T12:02:23.417Z,101390.88
2022-09-03T12:05:05.813Z,101380.41
2022-09-03T12:08:01.038Z,101386.00
2022-09-03T12:10:39.243Z,101385.13
2022-09-03T12:13:24.450Z,101385.13
2022-09-03T12:16:08.379Z,101384.28
2022-09-03T12:18:37.037Z,101362.03
2022-09-03T12:21:06.492Z,101378.56
2022-09-03T12:23:42.362Z,101382.78
2022-09-03T12:26:14.919Z,101381.06
2022-09-03T12:28:44.556Z,101388.34
2022-09-03T12:31:45.061Z,101377.53
2022-09-03T12:34:15.094Z,101382.94
2022-09-03T12:36:43.845Z,101383.13
2022-09-03T12:40:04.472Z,101377.91
2022-09-03T12:42:12.402Z,101373.19
2022-09-03T12:44:41.880Z,101372.66
2022-09-03T12:50:09.149Z,101366.94
2022-09-03T12:52:39.096Z,101365.44
2022-09-03T12:55:08.934Z,101360.19
2022-09-03T12:57:43.763Z,101356.47
2022-09-03T13:00:15.891Z,101335.88
2022-09-03T13:02:53.278Z,101347.38
2022-09-03T13:05:44.575Z,101333.06
2022-09-03T13:08:18.370Z,101340.78
2022-09-03T13:10:45.902Z,101357.81
2022-09-03T13:13:26.781Z,101345.84
2022-09-03T13:16:15.521Z,101345.53
2022-09-03T13:18:57.010Z,101337.94
2022-09-03T13:21:41.775Z,101348.22
2022-09-03T13:24:27.447Z,101346.00
2022-09-03T13:26:53.839Z,101349.38
2022-09-03T13:29:27.039Z,101347.19
2022-09-03T13:31:59.944Z,101346.00
2022-09-03T13:34:40.034Z,101324.25
2022-09-03T13:37:18.662Z,101335.53
2022-09-03T13:40:00.874Z,101317.50
2022-09-03T13:42:35.875Z,101345.66
2022-09-03T13:45:30.522Z,101334.53
2022-09-03T13:48:26.160Z,101333.50
2022-09-03T13:51:03.897Z,101341.44
2022-09-03T13:53:42.009Z,101335.00
2022-09-03T13:56:58.218Z,101340.41
2022-09-03T13:59:36.134Z,101342.56
2022-09-03T14:02:46.009Z,101343.44
2022-09-03T14:05:32.243Z,101328.91
2022-09-03T14:07:58.649Z,101331.28
2022-09-03T14:10:53.835Z,101339.38
2022-09-03T14:13:42.259Z,101327.59
2022-09-03T14:16:50.981Z,101335.53
2022-09-03T14:19:51.531Z,101328.25
2022-09-03T14:22:34.062Z,101328.59
2022-09-03T14:25:05.558Z,101333.16
2022-09-03T14:27:33.128Z,101328.59
2022-09-03T14:30:27.467Z,101261.22
2022-09-03T14:33:11.217Z,101332.81
2022-09-03T14:35:43.820Z,101337.34
2022-09-03T14:38:32.090Z,101336.38
2022-09-03T14:41:33.865Z,101333.31
2022-09-03T14:44:36.078Z,101329.59
2022-09-03T14:47:38.242Z,101331.94
2022-09-03T14:50:22.534Z,101327.88
2022-09-03T14:52:57.411Z,101329.91
2022-09-03T14:55:35.884Z,101327.34
2022-09-03T14:58:20.497Z,101326.97
2022-09-03T15:01:16.096Z,101323.28
2022-09-03T15:03:46.117Z,101322.59
2022-09-03T15:06:46.254Z,101326.13
2022-09-03T15:09:31.050Z,101325.47
2022-09-03T15:12:05.855Z,101312.19
2022-09-03T15:14:54.536Z,101323.28
2022-09-03T15:17:53.115Z,101324.28
2022-09-03T15:20:27.496Z,101321.44
2022-09-03T15:23:23.222Z,101318.72
2022-09-03T15:26:06.223Z,101316.69
2022-09-03T15:28:46.576Z,101317.53
2022-09-03T15:31:52.200Z,101314.66
2022-09-03T15:34:21.671Z,101311.59
2022-09-03T15:36:53.772Z,101307.91
2022-09-03T15:39:35.226Z,101313.31
2022-09-03T15:42:07.802Z,101303.31
2022-09-03T15:44:54.035Z,101324.78
2022-09-03T15:47:52.217Z,101315.47
2022-09-03T15:50:36.314Z,101316.97
2022-09-03T15:53:26.832Z,101312.94
2022-09-03T15:56:10.403Z,101319.34
2022-09-03T15:58:57.803Z,101329.13
2022-09-03T16:01:51.399Z,101329.94
2022-09-03T16:04:53.761Z,101313.81
2022-09-03T16:07:34.333Z,101324.38
2022-09-03T16:10:25.768Z,101326.06
2022-09-03T16:13:23.531Z,101327.59
2022-09-03T16:16:00.347Z,101323.53
2022-09-03T16:18:36.851Z,101330.28
2022-09-03T16:21:12.503Z,101334.47
2022-09-03T16:23:52.170Z,101343.44
2022-09-03T16:26:33.654Z,101336.16
2022-09-03T16:29:18.908Z,101336.16
2022-09-03T16:32:04.144Z,101335.16
2022-09-03T16:34:48.162Z,101331.63
2022-09-03T16:37:47.550Z,101337.84
2022-09-03T16:40:26.788Z,101339.88
2022-09-03T16:42:53.878Z,101338.84
2022-09-03T16:45:58.811Z,101341.56
2022-09-03T16:48:58.086Z,101347.81
2022-09-03T16:51:58.824Z,101339.06
2022-09-03T16:54:56.078Z,101338.84
2022-09-03T16:57:48.983Z,101339.88
2022-09-03T17:00:20.261Z,101341.75
2022-09-03T17:03:12.021Z,101339.88
2022-09-03T17:06:13.331Z,101342.75
2022-09-03T17:08:55.217Z,101335.69
2022-09-03T17:11:59.426Z,101344.47
2022-09-03T17:15:01.237Z,101347.31
2022-09-03T17:17:45.746Z,101342.75
2022-09-03T17:20:45.959Z,101347.31
2022-09-03T17:23:33.705Z,101352.72
2022-09-03T17:26:35.379Z,101345.63
2022-09-03T17:29:38.224Z,101344.78
2022-09-03T17:32:41.248Z,101346.66
2022-09-03T17:35:22.657Z,101355.59
2022-09-03T17:38:30.669Z,101360.84
2022-09-03T17:41:22.900Z,101361.84
2022-09-03T17:44:21.620Z,101364.06
2022-09-03T17:47:26.993Z,101357.84
2022-09-03T17:50:11.452Z,101367.28
2022-09-03T17:52:41.273Z,101369.31
2022-09-03T17:55:22.006Z,101374.91
2022-09-03T17:58:12.326Z,101365.13
2022-09-03T18:00:51.832Z,101375.94
2022-09-03T18:03:18.235Z,101375.06
2022-09-03T18:06:09.199Z,101377.47
2022-09-03T18:08:57.151Z,101369.34
2022-09-03T18:11:49.393Z,101377.63
2022-09-03T18:14:43.457Z,101388.41
2022-09-03T18:17:27.066Z,101375.97
2022-09-03T18:20:22.358Z,101386.91
2022-09-03T18:23:28.797Z,101397.88
2022-09-03T18:26:18.567Z,101401.44
2022-09-03T18:29:12.606Z,101403.47
2022-09-03T18:31:58.021Z,101412.59
2022-09-03T18:34:49.938Z,101415.28
2022-09-03T18:37:42.162Z,101414.97
2022-09-03T18:40:29.382Z,101423.56
2022-09-03T18:43:42.175Z,101415.81
2022-09-03T18:48:00.913Z,101426.44
2022-09-03T18:50:17.239Z,101427.44
2022-09-03T18:53:15.287Z,101428.47
2022-09-03T18:56:08.880Z,101429.47
2022-09-03T18:59:35.991Z,101429.47
2022-09-03T19:02:45.909Z,101425.09
2022-09-03T19:05:42.254Z,101433.34
2022-09-03T19:08:50.683Z,101436.94
2022-09-03T19:11:45.918Z,101420.88
2022-09-03T19:15:03.523Z,101431.69
2022-09-03T19:18:18.987Z,101429.81
2022-09-03T19:21:17.050Z,101439.94
2022-09-03T19:24:01.774Z,101429.00
2022-09-03T19:27:14.047Z,101427.31
2022-09-03T19:30:24.413Z,101435.56
2022-09-03T19:33:28.495Z,101425.78
2022-09-03T19:36:34.617Z,101435.56
2022-09-03T19:39:54.075Z,101438.59
2022-09-03T19:42:57.483Z,101432.38
2022-09-03T19:45:54.613Z,101437.78
2022-09-03T19:49:05.454Z,101442.50
2022-09-03T19:52:05.866Z,101452.47
2022-09-03T19:54:51.366Z,101453.44
2022-09-03T19:57:38.304Z,101458.19
2022-09-03T20:00:29.321Z,101462.59
2022-09-03T20:03:18.407Z,101471.69
2022-09-03T20:06:08.857Z,101460.69
2022-09-03T20:08:56.452Z,101467.47
2022-09-03T20:11:25.462Z,101472.72
2022-09-03T20:14:10.948Z,101452.78
2022-09-03T20:16:55.960Z,101471.69
2022-09-03T20:19:25.948Z,101466.28
2022-09-03T20:22:03.413Z,101474.38
2022-09-03T20:24:47.704Z,101474.38
2022-09-03T20:27:36.463Z,101473.03
2022-09-03T20:30:36.714Z,101476.06
2022-09-03T20:33:11.101Z,101478.78
2022-09-03T20:36:00.404Z,101464.41
2022-09-03T20:38:59.208Z,101480.66
2022-09-03T20:41:50.408Z,101482.47
2022-09-03T20:44:35.092Z,101479.78
2022-09-03T20:47:29.370Z,101485.38
2022-09-03T20:50:43.770Z,101488.06
2022-09-03T20:53:49.747Z,101478.44
2022-09-03T20:56:53.725Z,101481.13
2022-09-03T20:59:39.486Z,101481.28
2022-09-03T21:02:28.886Z,101484.81
2022-09-03T21:05:20.046Z,101493.94
2022-09-03T21:08:13.733Z,101488.53
2022-09-03T21:11:02.387Z,101493.06
2022-09-03T21:14:01.023Z,101455.13
2022-09-03T21:16:44.841Z,101486.16
2022-09-03T21:19:21.891Z,101475.34
2022-09-03T21:22:13.790Z,101491.41
2022-09-03T21:24:48.194Z,101491.41
2022-09-03T21:27:24.174Z,101497.81
2022-09-03T21:30:13.967Z,101511.97
2022-09-03T21:32:56.243Z,101498.47
2022-09-03T21:35:33.667Z,101505.91
2022-09-03T21:38:12.976Z,101513.84
2022-09-03T21:40:47.963Z,101508.44
2022-09-03T21:43:35.542Z,101513.84
2022-09-03T21:46:15.476Z,101512.16
2022-09-03T21:48:50.633Z,101513.00
2022-09-03T21:51:38.597Z,101516.69
2022-09-03T21:54:23.527Z,101519.41
2022-09-03T21:57:05.186Z,101521.25
2022-09-03T21:59:56.075Z,101524.13
2022-09-03T22:02:25.061Z,101527.69
2022-09-03T22:04:53.110Z,101530.38
2022-09-03T22:07:41.631Z,101527.84
2022-09-03T22:10:27.750Z,101534.06
2022-09-03T22:13:15.354Z,101528.69
2022-09-03T22:15:44.218Z,101532.22
2022-09-03T22:18:23.676Z,101537.81
2022-09-03T22:21:23.336Z,101541.34
2022-09-03T22:23:55.581Z,101536.97
2022-09-03T22:26:45.197Z,101531.56
2022-09-03T22:29:32.579Z,101534.25
2022-09-03T22:32:07.368Z,101537.97
2022-09-03T22:34:54.866Z,101529.03
2022-09-03T22:37:48.214Z,101542.53
2022-09-03T22:40:28.544Z,101532.22
2022-09-03T22:43:29.247Z,101534.75
2022-09-03T22:46:15.400Z,101545.38
2022-09-03T22:49:06.415Z,101535.75
2022-09-03T22:51:39.807Z,101538.47
2022-09-03T22:54:46.219Z,101532.06
2022-09-03T22:57:15.859Z,101537.63
2022-09-03T22:59:51.725Z,101512.97
2022-09-03T23:02:22.072Z,101547.59
2022-09-03T23:05:02.151Z,101543.69
2022-09-03T23:07:39.042Z,101546.91
2022-09-03T23:10:10.867Z,101541.66
2022-09-03T23:12:45.003Z,101547.75
2022-09-03T23:15:23.012Z,101534.25
2022-09-03T23:18:17.623Z,101536.13
2022-09-03T23:20:59.916Z,101543.34
2022-09-03T23:23:31.752Z,101548.59
2022-09-03T23:26:12.219Z,101553.31
2022-09-03T23:28:44.150Z,101545.34
2022-09-03T23:31:25.522Z,101549.09
2022-09-03T23:33:54.542Z,101546.88
2022-09-03T23:37:05.756Z,101558.84
2022-09-03T23:40:03.518Z,101557.19
2022-09-03T23:42:39.053Z,101561.75
2022-09-03T23:45:15.524Z,101561.75
2022-09-03T23:47:52.575Z,101529.97
2022-09-03T23:50:33.999Z,101562.72
2022-09-03T23:53:28.376Z,101551.44
2022-09-03T23:56:08.468Z,101549.25
2022-09-03T23:58:54.401Z,101550.25
